sensor_id;sensor_type;location;lat;lon;timestamp;P1;durP1;ratioP1;P2;durP2;ratioP2
16770;SDS011;8503;52.472;13.344;2023-12-20T00:00:15;2.13;;;1.38;;
16770;SDS011;8503;52.472;13.344;2023-12-20T00:01:17;1.80;;;1.15;;
16770;SDS011;8503;52.472;13.344;2023-12-20T00:02:19;2.38;;;1.63;;
16770;SDS011;8503;52.472;13.344;2023-12-20T00:03:22;1.42;;;1.00;;
16770;SDS011;8503;52.472;13.344;2023-12-20T00:04:24;2.85;;;1.70;;
16770;SDS011;8503;52.472;13.344;2023-12-20T00:05:26;1.65;;;1.20;;
16770;SDS011;8503;52.472;13.344;2023-12-20T00:06:27;2.97;;;1.23;;
16770;SDS011;8503;52.472;13.344;2023-12-20T00:07:31;2.00;;;1.50;;
16770;SDS011;8503;52.472;13.344;2023-12-20T00:08:32;1.73;;;1.55;;
16770;SDS011;8503;52.472;13.344;2023-12-20T00:09:34;1.65;;;1.38;;
16770;SDS011;8503;52.472;13.344;2023-12-20T00:10:36;1.17;;;0.98;;
16770;SDS011;8503;52.472;13.344;2023-12-20T00:11:38;2.03;;;1.30;;
16770;SDS011;8503;52.472;13.344;2023-12-20T00:12:42;1.75;;;1.27;;
16770;SDS011;8503;52.472;13.344;2023-12-20T00:13:45;1.58;;;1.00;;
16770;SDS011;8503;52.472;13.344;2023-12-20T00:14:50;2.10;;;1.25;;
16770;SDS011;8503;52.472;13.344;2023-12-20T00:15:51;2.40;;;1.30;;
16770;SDS011;8503;52.472;13.344;2023-12-20T00:16:53;1.75;;;1.25;;
16770;SDS011;8503;52.472;13.344;2023-12-20T00:17:55;1.25;;;0.85;;
16770;SDS011;8503;52.472;13.344;2023-12-20T00:18:59;2.22;;;1.48;;
16770;SDS011;8503;52.472;13.344;2023-12-20T00:20:00;1.80;;;1.23;;
16770;SDS011;8503;52.472;13.344;2023-12-20T00:21:02;1.67;;;1.42;;
16770;SDS011;8503;52.472;13.344;2023-12-20T00:22:04;1.73;;;1.10;;
16770;SDS011;8503;52.472;13.344;2023-12-20T00:23:06;0.90;;;0.73;;
16770;SDS011;8503;52.472;13.344;2023-12-20T00:24:08;1.20;;;0.85;;
16770;SDS011;8503;52.472;13.344;2023-12-20T00:25:10;1.90;;;1.25;;
16770;SDS011;8503;52.472;13.344;2023-12-20T00:26:11;1.52;;;1.10;;
16770;SDS011;8503;52.472;13.344;2023-12-20T00:27:14;2.38;;;1.30;;
16770;SDS011;8503;52.472;13.344;2023-12-20T00:28:16;1.33;;;1.00;;
16770;SDS011;8503;52.472;13.344;2023-12-20T00:29:19;1.67;;;1.10;;
16770;SDS011;8503;52.472;13.344;2023-12-20T00:30:20;1.50;;;1.27;;
16770;SDS011;8503;52.472;13.344;2023-12-20T00:31:23;1.52;;;1.13;;
16770;SDS011;8503;52.472;13.344;2023-12-20T00:32:24;1.35;;;0.95;;
16770;SDS011;8503;52.472;13.344;2023-12-20T00:33:27;1.27;;;1.00;;
16770;SDS011;8503;52.472;13.344;2023-12-20T00:34:28;2.58;;;1.02;;
16770;SDS011;8503;52.472;13.344;2023-12-20T00:35:30;1.55;;;1.10;;
16770;SDS011;8503;52.472;13.344;2023-12-20T00:36:31;2.13;;;1.00;;
16770;SDS011;8503;52.472;13.344;2023-12-20T00:37:33;1.73;;;1.17;;
16770;SDS011;8503;52.472;13.344;2023-12-20T00:38:35;1.55;;;1.13;;
16770;SDS011;8503;52.472;13.344;2023-12-20T00:39:37;1.90;;;1.30;;
16770;SDS011;8503;52.472;13.344;2023-12-20T00:40:38;1.75;;;1.00;;
16770;SDS011;8503;52.472;13.344;2023-12-20T00:41:40;2.42;;;1.20;;
16770;SDS011;8503;52.472;13.344;2023-12-20T00:42:42;1.45;;;0.90;;
16770;SDS011;8503;52.472;13.344;2023-12-20T00:43:44;2.25;;;1.33;;
16770;SDS011;8503;52.472;13.344;2023-12-20T00:44:46;1.48;;;1.10;;
16770;SDS011;8503;52.472;13.344;2023-12-20T00:45:50;1.88;;;0.70;;
16770;SDS011;8503;52.472;13.344;2023-12-20T00:46:51;1.92;;;1.10;;
16770;SDS011;8503;52.472;13.344;2023-12-20T00:47:53;1.35;;;1.10;;
16770;SDS011;8503;52.472;13.344;2023-12-20T00:48:55;1.88;;;1.27;;
16770;SDS011;8503;52.472;13.344;2023-12-20T00:49:56;1.73;;;1.08;;
16770;SDS011;8503;52.472;13.344;2023-12-20T00:50:59;1.25;;;0.88;;
16770;SDS011;8503;52.472;13.344;2023-12-20T00:52:00;1.55;;;1.02;;
16770;SDS011;8503;52.472;13.344;2023-12-20T00:53:02;1.70;;;1.25;;
16770;SDS011;8503;52.472;13.344;2023-12-20T00:54:03;6.13;;;0.90;;
16770;SDS011;8503;52.472;13.344;2023-12-20T00:55:05;0.85;;;0.70;;
16770;SDS011;8503;52.472;13.344;2023-12-20T00:56:07;1.63;;;1.30;;
16770;SDS011;8503;52.472;13.344;2023-12-20T00:57:09;1.60;;;1.10;;
16770;SDS011;8503;52.472;13.344;2023-12-20T00:58:11;1.58;;;1.05;;
16770;SDS011;8503;52.472;13.344;2023-12-20T00:59:16;2.10;;;0.93;;
16770;SDS011;8503;52.472;13.344;2023-12-20T01:00:20;1.90;;;1.30;;
16770;SDS011;8503;52.472;13.344;2023-12-20T01:01:21;1.35;;;0.85;;
16770;SDS011;8503;52.472;13.344;2023-12-20T01:02:23;1.75;;;1.20;;
16770;SDS011;8503;52.472;13.344;2023-12-20T01:03:25;1.80;;;1.05;;
16770;SDS011;8503;52.472;13.344;2023-12-20T01:04:26;1.52;;;0.88;;
16770;SDS011;8503;52.472;13.344;2023-12-20T01:05:28;1.15;;;0.75;;
16770;SDS011;8503;52.472;13.344;2023-12-20T01:06:29;1.73;;;1.17;;
16770;SDS011;8503;52.472;13.344;2023-12-20T01:07:32;0.82;;;0.70;;
16770;SDS011;8503;52.472;13.344;2023-12-20T01:08:33;1.60;;;1.10;;
16770;SDS011;8503;52.472;13.344;2023-12-20T01:09:35;1.25;;;1.00;;
16770;SDS011;8503;52.472;13.344;2023-12-20T01:10:37;2.17;;;1.20;;
16770;SDS011;8503;52.472;13.344;2023-12-20T01:11:39;1.45;;;0.85;;
16770;SDS011;8503;52.472;13.344;2023-12-20T01:12:41;1.27;;;1.00;;
16770;SDS011;8503;52.472;13.344;2023-12-20T01:13:43;1.45;;;0.90;;
16770;SDS011;8503;52.472;13.344;2023-12-20T01:14:44;1.98;;;1.30;;
16770;SDS011;8503;52.472;13.344;2023-12-20T01:15:48;1.48;;;0.93;;
16770;SDS011;8503;52.472;13.344;2023-12-20T01:16:49;1.95;;;1.05;;
16770;SDS011;8503;52.472;13.344;2023-12-20T01:17:51;0.98;;;0.85;;
16770;SDS011;8503;52.472;13.344;2023-12-20T01:18:53;1.70;;;0.82;;
16770;SDS011;8503;52.472;13.344;2023-12-20T01:19:55;1.10;;;0.80;;
16770;SDS011;8503;52.472;13.344;2023-12-20T01:21:00;1.15;;;0.95;;
16770;SDS011;8503;52.472;13.344;2023-12-20T01:22:03;1.63;;;1.13;;
16770;SDS011;8503;52.472;13.344;2023-12-20T01:23:05;1.17;;;1.00;;
16770;SDS011;8503;52.472;13.344;2023-12-20T01:24:06;1.55;;;0.93;;
16770;SDS011;8503;52.472;13.344;2023-12-20T01:25:09;1.42;;;0.88;;
16770;SDS011;8503;52.472;13.344;2023-12-20T01:26:10;1.55;;;0.90;;
16770;SDS011;8503;52.472;13.344;2023-12-20T01:27:12;1.38;;;0.90;;
16770;SDS011;8503;52.472;13.344;2023-12-20T01:28:13;1.27;;;0.90;;
16770;SDS011;8503;52.472;13.344;2023-12-20T01:29:16;1.67;;;1.25;;
16770;SDS011;8503;52.472;13.344;2023-12-20T01:30:17;1.23;;;0.88;;
16770;SDS011;8503;52.472;13.344;2023-12-20T01:31:21;1.85;;;1.27;;
16770;SDS011;8503;52.472;13.344;2023-12-20T01:32:22;1.20;;;0.90;;
16770;SDS011;8503;52.472;13.344;2023-12-20T01:33:25;1.08;;;0.80;;
16770;SDS011;8503;52.472;13.344;2023-12-20T01:34:26;1.33;;;0.90;;
16770;SDS011;8503;52.472;13.344;2023-12-20T01:35:28;1.00;;;0.90;;
16770;SDS011;8503;52.472;13.344;2023-12-20T01:36:29;1.00;;;0.73;;
16770;SDS011;8503;52.472;13.344;2023-12-20T01:37:32;1.40;;;0.95;;
16770;SDS011;8503;52.472;13.344;2023-12-20T01:38:33;1.30;;;0.82;;
16770;SDS011;8503;52.472;13.344;2023-12-20T01:39:35;1.30;;;1.00;;
16770;SDS011;8503;52.472;13.344;2023-12-20T01:40:36;1.80;;;0.95;;
16770;SDS011;8503;52.472;13.344;2023-12-20T01:41:37;0.93;;;0.73;;
16770;SDS011;8503;52.472;13.344;2023-12-20T01:42:40;1.50;;;0.70;;
16770;SDS011;8503;52.472;13.344;2023-12-20T01:43:41;1.17;;;0.90;;
16770;SDS011;8503;52.472;13.344;2023-12-20T01:44:50;1.55;;;0.90;;
16770;SDS011;8503;52.472;13.344;2023-12-20T01:45:51;1.10;;;0.80;;
16770;SDS011;8503;52.472;13.344;2023-12-20T01:46:55;1.42;;;0.88;;
16770;SDS011;8503;52.472;13.344;2023-12-20T01:47:57;1.30;;;0.98;;
16770;SDS011;8503;52.472;13.344;2023-12-20T01:49:01;0.95;;;0.77;;
16770;SDS011;8503;52.472;13.344;2023-12-20T01:50:04;1.02;;;0.73;;
16770;SDS011;8503;52.472;13.344;2023-12-20T01:51:09;1.20;;;0.65;;
16770;SDS011;8503;52.472;13.344;2023-12-20T01:52:10;1.30;;;0.85;;
16770;SDS011;8503;52.472;13.344;2023-12-20T01:53:13;1.83;;;1.08;;
16770;SDS011;8503;52.472;13.344;2023-12-20T01:54:15;1.23;;;0.90;;
16770;SDS011;8503;52.472;13.344;2023-12-20T01:55:17;1.83;;;0.85;;
16770;SDS011;8503;52.472;13.344;2023-12-20T01:56:19;1.15;;;0.82;;
16770;SDS011;8503;52.472;13.344;2023-12-20T01:57:21;1.60;;;0.95;;
16770;SDS011;8503;52.472;13.344;2023-12-20T01:58:23;3.65;;;1.00;;
16770;SDS011;8503;52.472;13.344;2023-12-20T01:59:24;1.65;;;0.93;;
16770;SDS011;8503;52.472;13.344;2023-12-20T02:00:26;0.93;;;0.68;;
16770;SDS011;8503;52.472;13.344;2023-12-20T02:01:31;1.17;;;0.70;;
16770;SDS011;8503;52.472;13.344;2023-12-20T02:02:34;1.02;;;0.77;;
16770;SDS011;8503;52.472;13.344;2023-12-20T02:03:39;0.73;;;0.65;;
16770;SDS011;8503;52.472;13.344;2023-12-20T02:04:41;1.85;;;0.73;;
16770;SDS011;8503;52.472;13.344;2023-12-20T02:05:43;1.42;;;1.00;;
16770;SDS011;8503;52.472;13.344;2023-12-20T02:06:47;1.20;;;0.77;;
16770;SDS011;8503;52.472;13.344;2023-12-20T02:07:49;1.08;;;0.70;;
16770;SDS011;8503;52.472;13.344;2023-12-20T02:08:51;1.10;;;0.88;;
16770;SDS011;8503;52.472;13.344;2023-12-20T02:09:52;1.42;;;0.88;;
16770;SDS011;8503;52.472;13.344;2023-12-20T02:10:55;1.85;;;1.08;;
16770;SDS011;8503;52.472;13.344;2023-12-20T02:11:56;1.83;;;1.13;;
16770;SDS011;8503;52.472;13.344;2023-12-20T02:12:58;1.10;;;0.95;;
16770;SDS011;8503;52.472;13.344;2023-12-20T02:14:00;1.88;;;1.10;;
16770;SDS011;8503;52.472;13.344;2023-12-20T02:15:02;1.50;;;0.90;;
16770;SDS011;8503;52.472;13.344;2023-12-20T02:16:04;1.67;;;1.20;;
16770;SDS011;8503;52.472;13.344;2023-12-20T02:17:07;1.83;;;1.05;;
16770;SDS011;8503;52.472;13.344;2023-12-20T02:18:10;1.55;;;1.10;;
16770;SDS011;8503;52.472;13.344;2023-12-20T02:19:15;1.90;;;1.23;;
16770;SDS011;8503;52.472;13.344;2023-12-20T02:20:19;1.30;;;1.08;;
16770;SDS011;8503;52.472;13.344;2023-12-20T02:21:25;1.08;;;0.98;;
16770;SDS011;8503;52.472;13.344;2023-12-20T02:22:33;1.25;;;1.10;;
16770;SDS011;8503;52.472;13.344;2023-12-20T02:23:36;1.42;;;1.08;;
16770;SDS011;8503;52.472;13.344;2023-12-20T02:24:37;1.13;;;0.80;;
16770;SDS011;8503;52.472;13.344;2023-12-20T02:25:39;1.92;;;1.10;;
16770;SDS011;8503;52.472;13.344;2023-12-20T02:26:41;1.63;;;1.27;;
16770;SDS011;8503;52.472;13.344;2023-12-20T02:27:46;1.83;;;1.20;;
16770;SDS011;8503;52.472;13.344;2023-12-20T02:28:48;1.98;;;1.30;;
16770;SDS011;8503;52.472;13.344;2023-12-20T02:29:49;1.60;;;1.20;;
16770;SDS011;8503;52.472;13.344;2023-12-20T02:30:52;2.10;;;1.20;;
16770;SDS011;8503;52.472;13.344;2023-12-20T02:31:53;1.17;;;1.00;;
16770;SDS011;8503;52.472;13.344;2023-12-20T02:32:55;1.95;;;1.40;;
16770;SDS011;8503;52.472;13.344;2023-12-20T02:33:59;1.75;;;1.30;;
16770;SDS011;8503;52.472;13.344;2023-12-20T02:35:00;1.83;;;1.30;;
16770;SDS011;8503;52.472;13.344;2023-12-20T02:36:03;2.92;;;1.52;;
16770;SDS011;8503;52.472;13.344;2023-12-20T02:37:06;1.40;;;1.30;;
16770;SDS011;8503;52.472;13.344;2023-12-20T02:38:07;1.98;;;1.25;;
16770;SDS011;8503;52.472;13.344;2023-12-20T02:39:09;1.90;;;1.30;;
16770;SDS011;8503;52.472;13.344;2023-12-20T02:40:10;2.30;;;1.42;;
16770;SDS011;8503;52.472;13.344;2023-12-20T02:41:12;2.70;;;1.23;;
16770;SDS011;8503;52.472;13.344;2023-12-20T02:42:17;2.03;;;1.40;;
16770;SDS011;8503;52.472;13.344;2023-12-20T02:43:19;3.95;;;1.65;;
16770;SDS011;8503;52.472;13.344;2023-12-20T02:44:21;2.20;;;1.52;;
16770;SDS011;8503;52.472;13.344;2023-12-20T02:45:23;1.92;;;1.52;;
16770;SDS011;8503;52.472;13.344;2023-12-20T02:46:24;2.13;;;1.48;;
16770;SDS011;8503;52.472;13.344;2023-12-20T02:47:26;1.70;;;1.20;;
16770;SDS011;8503;52.472;13.344;2023-12-20T02:48:29;2.47;;;1.10;;
16770;SDS011;8503;52.472;13.344;2023-12-20T02:49:32;2.03;;;1.08;;
16770;SDS011;8503;52.472;13.344;2023-12-20T02:50:33;1.60;;;1.08;;
16770;SDS011;8503;52.472;13.344;2023-12-20T02:51:36;2.53;;;1.27;;
16770;SDS011;8503;52.472;13.344;2023-12-20T02:52:40;3.45;;;1.77;;
16770;SDS011;8503;52.472;13.344;2023-12-20T02:53:43;2.22;;;1.38;;
16770;SDS011;8503;52.472;13.344;2023-12-20T02:54:45;1.83;;;1.30;;
16770;SDS011;8503;52.472;13.344;2023-12-20T02:55:47;1.48;;;1.17;;
16770;SDS011;8503;52.472;13.344;2023-12-20T02:56:48;3.83;;;1.40;;
16770;SDS011;8503;52.472;13.344;2023-12-20T02:57:50;2.00;;;1.50;;
16770;SDS011;8503;52.472;13.344;2023-12-20T02:58:52;2.10;;;1.48;;
16770;SDS011;8503;52.472;13.344;2023-12-20T02:59:53;1.40;;;1.20;;
16770;SDS011;8503;52.472;13.344;2023-12-20T03:00:56;2.63;;;1.65;;
16770;SDS011;8503;52.472;13.344;2023-12-20T03:01:57;2.17;;;1.52;;
16770;SDS011;8503;52.472;13.344;2023-12-20T03:02:59;1.25;;;0.98;;
16770;SDS011;8503;52.472;13.344;2023-12-20T03:04:03;2.50;;;1.13;;
16770;SDS011;8503;52.472;13.344;2023-12-20T03:05:06;1.75;;;1.25;;
16770;SDS011;8503;52.472;13.344;2023-12-20T03:06:08;3.35;;;1.65;;
16770;SDS011;8503;52.472;13.344;2023-12-20T03:07:10;2.10;;;1.65;;
16770;SDS011;8503;52.472;13.344;2023-12-20T03:08:13;2.85;;;1.30;;
16770;SDS011;8503;52.472;13.344;2023-12-20T03:09:16;2.03;;;1.17;;
16770;SDS011;8503;52.472;13.344;2023-12-20T03:10:18;1.60;;;1.30;;
16770;SDS011;8503;52.472;13.344;2023-12-20T03:11:26;2.67;;;1.35;;
16770;SDS011;8503;52.472;13.344;2023-12-20T03:12:27;2.22;;;1.55;;
16770;SDS011;8503;52.472;13.344;2023-12-20T03:13:29;2.35;;;1.60;;
16770;SDS011;8503;52.472;13.344;2023-12-20T03:14:30;1.95;;;1.50;;
16770;SDS011;8503;52.472;13.344;2023-12-20T03:15:32;3.47;;;1.60;;
16770;SDS011;8503;52.472;13.344;2023-12-20T03:16:34;2.03;;;1.50;;
16770;SDS011;8503;52.472;13.344;2023-12-20T03:17:36;1.65;;;1.17;;
16770;SDS011;8503;52.472;13.344;2023-12-20T03:18:38;2.33;;;1.35;;
16770;SDS011;8503;52.472;13.344;2023-12-20T03:19:39;2.15;;;1.65;;
16770;SDS011;8503;52.472;13.344;2023-12-20T03:20:41;3.42;;;1.38;;
16770;SDS011;8503;52.472;13.344;2023-12-20T03:21:43;2.10;;;1.40;;
16770;SDS011;8503;52.472;13.344;2023-12-20T03:22:45;2.83;;;1.58;;
16770;SDS011;8503;52.472;13.344;2023-12-20T03:23:47;2.58;;;1.48;;
16770;SDS011;8503;52.472;13.344;2023-12-20T03:24:50;1.42;;;1.13;;
16770;SDS011;8503;52.472;13.344;2023-12-20T03:25:54;3.03;;;1.40;;
16770;SDS011;8503;52.472;13.344;2023-12-20T03:26:55;1.77;;;1.25;;
16770;SDS011;8503;52.472;13.344;2023-12-20T03:27:57;2.55;;;1.10;;
16770;SDS011;8503;52.472;13.344;2023-12-20T03:28:59;3.38;;;1.20;;
16770;SDS011;8503;52.472;13.344;2023-12-20T03:30:01;3.03;;;1.17;;
16770;SDS011;8503;52.472;13.344;2023-12-20T03:31:03;3.50;;;1.45;;
16770;SDS011;8503;52.472;13.344;2023-12-20T03:32:05;2.08;;;1.27;;
16770;SDS011;8503;52.472;13.344;2023-12-20T03:33:08;2.80;;;1.50;;
16770;SDS011;8503;52.472;13.344;2023-12-20T03:34:10;3.13;;;1.60;;
16770;SDS011;8503;52.472;13.344;2023-12-20T03:35:13;2.35;;;1.45;;
16770;SDS011;8503;52.472;13.344;2023-12-20T03:36:15;2.88;;;1.23;;
16770;SDS011;8503;52.472;13.344;2023-12-20T03:37:16;4.38;;;1.38;;
16770;SDS011;8503;52.472;13.344;2023-12-20T03:38:18;3.47;;;1.52;;
16770;SDS011;8503;52.472;13.344;2023-12-20T03:39:21;3.58;;;1.60;;
16770;SDS011;8503;52.472;13.344;2023-12-20T03:40:23;1.85;;;1.00;;
16770;SDS011;8503;52.472;13.344;2023-12-20T03:41:24;2.63;;;1.17;;
16770;SDS011;8503;52.472;13.344;2023-12-20T03:42:26;1.27;;;1.10;;
16770;SDS011;8503;52.472;13.344;2023-12-20T03:43:28;2.15;;;1.05;;
16770;SDS011;8503;52.472;13.344;2023-12-20T03:44:29;2.30;;;1.42;;
16770;SDS011;8503;52.472;13.344;2023-12-20T03:45:32;2.38;;;1.13;;
16770;SDS011;8503;52.472;13.344;2023-12-20T03:46:33;1.52;;;0.90;;
16770;SDS011;8503;52.472;13.344;2023-12-20T03:47:34;3.83;;;1.10;;
16770;SDS011;8503;52.472;13.344;2023-12-20T03:48:37;1.73;;;1.13;;
16770;SDS011;8503;52.472;13.344;2023-12-20T03:49:38;2.78;;;1.20;;
16770;SDS011;8503;52.472;13.344;2023-12-20T03:50:40;1.88;;;1.08;;
16770;SDS011;8503;52.472;13.344;2023-12-20T03:51:41;3.17;;;1.10;;
16770;SDS011;8503;52.472;13.344;2023-12-20T03:52:44;1.55;;;0.98;;
16770;SDS011;8503;52.472;13.344;2023-12-20T03:53:45;4.32;;;1.25;;
16770;SDS011;8503;52.472;13.344;2023-12-20T03:54:48;2.20;;;1.27;;
16770;SDS011;8503;52.472;13.344;2023-12-20T03:55:50;1.83;;;1.10;;
16770;SDS011;8503;52.472;13.344;2023-12-20T03:56:52;2.47;;;1.10;;
16770;SDS011;8503;52.472;13.344;2023-12-20T03:57:53;2.75;;;1.35;;
16770;SDS011;8503;52.472;13.344;2023-12-20T03:58:55;2.35;;;0.90;;
16770;SDS011;8503;52.472;13.344;2023-12-20T03:59:56;1.92;;;0.93;;
16770;SDS011;8503;52.472;13.344;2023-12-20T04:00:58;2.38;;;0.70;;
16770;SDS011;8503;52.472;13.344;2023-12-20T04:01:59;1.50;;;0.88;;
16770;SDS011;8503;52.472;13.344;2023-12-20T04:03:01;1.60;;;1.10;;
16770;SDS011;8503;52.472;13.344;2023-12-20T04:04:03;2.67;;;0.75;;
16770;SDS011;8503;52.472;13.344;2023-12-20T04:05:05;2.15;;;0.93;;
16770;SDS011;8503;52.472;13.344;2023-12-20T04:06:09;1.65;;;1.08;;
16770;SDS011;8503;52.472;13.344;2023-12-20T04:07:16;2.63;;;0.90;;
16770;SDS011;8503;52.472;13.344;2023-12-20T04:08:18;1.42;;;0.90;;
16770;SDS011;8503;52.472;13.344;2023-12-20T04:09:27;4.60;;;0.60;;
16770;SDS011;8503;52.472;13.344;2023-12-20T04:10:30;0.85;;;0.52;;
16770;SDS011;8503;52.472;13.344;2023-12-20T04:11:32;4.85;;;0.90;;
16770;SDS011;8503;52.472;13.344;2023-12-20T04:12:34;3.05;;;0.80;;
16770;SDS011;8503;52.472;13.344;2023-12-20T04:13:35;1.83;;;0.90;;
16770;SDS011;8503;52.472;13.344;2023-12-20T04:14:38;2.90;;;0.63;;
16770;SDS011;8503;52.472;13.344;2023-12-20T04:15:39;2.28;;;0.70;;
16770;SDS011;8503;52.472;13.344;2023-12-20T04:16:41;0.98;;;0.60;;
16770;SDS011;8503;52.472;13.344;2023-12-20T04:17:46;2.08;;;0.80;;
16770;SDS011;8503;52.472;13.344;2023-12-20T04:18:49;2.88;;;1.02;;
16770;SDS011;8503;52.472;13.344;2023-12-20T04:19:50;3.17;;;0.90;;
16770;SDS011;8503;52.472;13.344;2023-12-20T04:20:53;2.30;;;0.65;;
16770;SDS011;8503;52.472;13.344;2023-12-20T04:21:54;1.85;;;1.02;;
16770;SDS011;8503;52.472;13.344;2023-12-20T04:22:56;2.17;;;1.00;;
16770;SDS011;8503;52.472;13.344;2023-12-20T04:23:58;2.00;;;0.77;;
16770;SDS011;8503;52.472;13.344;2023-12-20T04:25:00;3.33;;;0.57;;
16770;SDS011;8503;52.472;13.344;2023-12-20T04:26:02;2.28;;;1.17;;
16770;SDS011;8503;52.472;13.344;2023-12-20T04:27:03;5.97;;;0.93;;
16770;SDS011;8503;52.472;13.344;2023-12-20T04:28:06;5.07;;;0.88;;
16770;SDS011;8503;52.472;13.344;2023-12-20T04:29:07;3.38;;;0.90;;
16770;SDS011;8503;52.472;13.344;2023-12-20T04:30:09;3.50;;;0.85;;
16770;SDS011;8503;52.472;13.344;2023-12-20T04:31:11;2.60;;;0.88;;
16770;SDS011;8503;52.472;13.344;2023-12-20T04:32:15;4.10;;;0.80;;
16770;SDS011;8503;52.472;13.344;2023-12-20T04:33:16;4.35;;;0.93;;
16770;SDS011;8503;52.472;13.344;2023-12-20T04:34:18;2.78;;;0.65;;
16770;SDS011;8503;52.472;13.344;2023-12-20T04:35:19;1.60;;;0.50;;
16770;SDS011;8503;52.472;13.344;2023-12-20T04:36:22;3.97;;;0.80;;
16770;SDS011;8503;52.472;13.344;2023-12-20T04:37:25;2.70;;;0.55;;
16770;SDS011;8503;52.472;13.344;2023-12-20T04:38:27;2.13;;;0.60;;
16770;SDS011;8503;52.472;13.344;2023-12-20T04:39:29;2.30;;;0.50;;
16770;SDS011;8503;52.472;13.344;2023-12-20T04:40:30;1.27;;;0.47;;
16770;SDS011;8503;52.472;13.344;2023-12-20T04:41:34;3.92;;;1.15;;
16770;SDS011;8503;52.472;13.344;2023-12-20T04:42:35;2.58;;;0.80;;
16770;SDS011;8503;52.472;13.344;2023-12-20T04:43:37;1.83;;;0.82;;
16770;SDS011;8503;52.472;13.344;2023-12-20T04:44:38;2.20;;;0.68;;
16770;SDS011;8503;52.472;13.344;2023-12-20T04:45:40;1.45;;;0.93;;
16770;SDS011;8503;52.472;13.344;2023-12-20T04:46:42;2.80;;;0.82;;
16770;SDS011;8503;52.472;13.344;2023-12-20T04:47:44;1.80;;;0.47;;
16770;SDS011;8503;52.472;13.344;2023-12-20T04:48:47;3.38;;;0.75;;
16770;SDS011;8503;52.472;13.344;2023-12-20T04:49:50;0.90;;;0.32;;
16770;SDS011;8503;52.472;13.344;2023-12-20T04:50:51;1.13;;;0.57;;
16770;SDS011;8503;52.472;13.344;2023-12-20T04:51:53;4.25;;;0.93;;
16770;SDS011;8503;52.472;13.344;2023-12-20T04:52:55;3.53;;;1.27;;
16770;SDS011;8503;52.472;13.344;2023-12-20T04:53:57;1.23;;;0.50;;
16770;SDS011;8503;52.472;13.344;2023-12-20T04:54:59;2.65;;;0.88;;
16770;SDS011;8503;52.472;13.344;2023-12-20T04:56:00;2.90;;;0.47;;
16770;SDS011;8503;52.472;13.344;2023-12-20T04:57:04;2.42;;;0.93;;
16770;SDS011;8503;52.472;13.344;2023-12-20T04:58:05;3.33;;;1.02;;
16770;SDS011;8503;52.472;13.344;2023-12-20T04:59:07;3.53;;;0.85;;
16770;SDS011;8503;52.472;13.344;2023-12-20T05:00:09;3.15;;;0.63;;
16770;SDS011;8503;52.472;13.344;2023-12-20T05:01:12;1.88;;;0.65;;
16770;SDS011;8503;52.472;13.344;2023-12-20T05:02:14;4.00;;;0.65;;
16770;SDS011;8503;52.472;13.344;2023-12-20T05:03:17;3.85;;;0.80;;
16770;SDS011;8503;52.472;13.344;2023-12-20T05:04:18;1.85;;;0.52;;
16770;SDS011;8503;52.472;13.344;2023-12-20T05:05:20;2.42;;;0.70;;
16770;SDS011;8503;52.472;13.344;2023-12-20T05:06:22;3.65;;;0.85;;
16770;SDS011;8503;52.472;13.344;2023-12-20T05:07:24;1.92;;;0.65;;
16770;SDS011;8503;52.472;13.344;2023-12-20T05:08:29;2.53;;;0.68;;
16770;SDS011;8503;52.472;13.344;2023-12-20T05:09:30;0.93;;;0.60;;
16770;SDS011;8503;52.472;13.344;2023-12-20T05:10:33;3.58;;;0.80;;
16770;SDS011;8503;52.472;13.344;2023-12-20T05:11:38;1.83;;;0.57;;
16770;SDS011;8503;52.472;13.344;2023-12-20T05:12:41;1.40;;;0.80;;
16770;SDS011;8503;52.472;13.344;2023-12-20T05:13:42;5.35;;;0.90;;
16770;SDS011;8503;52.472;13.344;2023-12-20T05:14:50;1.83;;;0.73;;
16770;SDS011;8503;52.472;13.344;2023-12-20T05:15:52;2.35;;;0.80;;
16770;SDS011;8503;52.472;13.344;2023-12-20T05:16:54;1.85;;;0.88;;
16770;SDS011;8503;52.472;13.344;2023-12-20T05:17:56;2.22;;;0.60;;
16770;SDS011;8503;52.472;13.344;2023-12-20T05:18:58;8.38;;;0.60;;
16770;SDS011;8503;52.472;13.344;2023-12-20T05:20:01;2.10;;;0.75;;
16770;SDS011;8503;52.472;13.344;2023-12-20T05:21:06;3.45;;;0.47;;
16770;SDS011;8503;52.472;13.344;2023-12-20T05:22:10;3.05;;;0.85;;
16770;SDS011;8503;52.472;13.344;2023-12-20T05:23:12;1.30;;;0.60;;
16770;SDS011;8503;52.472;13.344;2023-12-20T05:24:14;1.92;;;0.40;;
16770;SDS011;8503;52.472;13.344;2023-12-20T05:25:16;0.52;;;0.50;;
16770;SDS011;8503;52.472;13.344;2023-12-20T05:26:17;2.05;;;0.63;;
16770;SDS011;8503;52.472;13.344;2023-12-20T05:27:19;2.55;;;0.68;;
16770;SDS011;8503;52.472;13.344;2023-12-20T05:28:22;2.88;;;0.60;;
16770;SDS011;8503;52.472;13.344;2023-12-20T05:29:25;2.08;;;0.52;;
16770;SDS011;8503;52.472;13.344;2023-12-20T05:30:26;2.05;;;0.52;;
16770;SDS011;8503;52.472;13.344;2023-12-20T05:31:28;2.28;;;1.05;;
16770;SDS011;8503;52.472;13.344;2023-12-20T05:32:29;5.85;;;0.82;;
16770;SDS011;8503;52.472;13.344;2023-12-20T05:33:32;2.92;;;0.95;;
16770;SDS011;8503;52.472;13.344;2023-12-20T05:34:35;5.32;;;0.80;;
16770;SDS011;8503;52.472;13.344;2023-12-20T05:35:37;3.13;;;0.68;;
16770;SDS011;8503;52.472;13.344;2023-12-20T05:36:39;5.90;;;1.00;;
16770;SDS011;8503;52.472;13.344;2023-12-20T05:37:41;3.30;;;0.55;;
16770;SDS011;8503;52.472;13.344;2023-12-20T05:38:42;2.30;;;0.38;;
16770;SDS011;8503;52.472;13.344;2023-12-20T05:39:45;1.40;;;0.80;;
16770;SDS011;8503;52.472;13.344;2023-12-20T05:40:47;2.15;;;0.52;;
16770;SDS011;8503;52.472;13.344;2023-12-20T05:41:49;0.77;;;0.47;;
16770;SDS011;8503;52.472;13.344;2023-12-20T05:42:50;5.28;;;0.90;;
16770;SDS011;8503;52.472;13.344;2023-12-20T05:43:54;3.80;;;0.65;;
16770;SDS011;8503;52.472;13.344;2023-12-20T05:44:55;1.45;;;0.70;;
16770;SDS011;8503;52.472;13.344;2023-12-20T05:45:58;2.42;;;0.63;;
16770;SDS011;8503;52.472;13.344;2023-12-20T05:47:00;0.70;;;0.28;;
16770;SDS011;8503;52.472;13.344;2023-12-20T05:48:01;2.63;;;0.95;;
16770;SDS011;8503;52.472;13.344;2023-12-20T05:49:03;1.40;;;0.70;;
16770;SDS011;8503;52.472;13.344;2023-12-20T05:50:05;1.63;;;0.30;;
16770;SDS011;8503;52.472;13.344;2023-12-20T05:51:07;0.52;;;0.38;;
16770;SDS011;8503;52.472;13.344;2023-12-20T05:52:12;2.50;;;0.55;;
16770;SDS011;8503;52.472;13.344;2023-12-20T05:53:14;2.90;;;0.65;;
16770;SDS011;8503;52.472;13.344;2023-12-20T05:54:15;2.30;;;0.40;;
16770;SDS011;8503;52.472;13.344;2023-12-20T05:55:23;2.80;;;0.38;;
16770;SDS011;8503;52.472;13.344;2023-12-20T05:56:27;1.10;;;0.70;;
16770;SDS011;8503;52.472;13.344;2023-12-20T05:57:29;2.67;;;0.68;;
16770;SDS011;8503;52.472;13.344;2023-12-20T05:58:31;2.35;;;0.57;;
16770;SDS011;8503;52.472;13.344;2023-12-20T05:59:35;3.80;;;0.60;;
16770;SDS011;8503;52.472;13.344;2023-12-20T06:00:36;2.08;;;0.47;;
16770;SDS011;8503;52.472;13.344;2023-12-20T06:01:38;1.83;;;0.75;;
16770;SDS011;8503;52.472;13.344;2023-12-20T06:02:40;6.13;;;0.80;;
16770;SDS011;8503;52.472;13.344;2023-12-20T06:03:42;1.88;;;0.85;;
16770;SDS011;8503;52.472;13.344;2023-12-20T06:04:43;5.13;;;0.52;;
16770;SDS011;8503;52.472;13.344;2023-12-20T06:05:46;6.50;;;1.00;;
16770;SDS011;8503;52.472;13.344;2023-12-20T06:06:47;0.75;;;0.45;;
16770;SDS011;8503;52.472;13.344;2023-12-20T06:07:49;0.98;;;0.50;;
16770;SDS011;8503;52.472;13.344;2023-12-20T06:08:51;5.57;;;0.88;;
16770;SDS011;8503;52.472;13.344;2023-12-20T06:09:53;4.28;;;1.00;;
16770;SDS011;8503;52.472;13.344;2023-12-20T06:10:57;2.28;;;0.77;;
16770;SDS011;8503;52.472;13.344;2023-12-20T06:11:59;3.60;;;0.77;;
16770;SDS011;8503;52.472;13.344;2023-12-20T06:13:00;4.25;;;1.00;;
16770;SDS011;8503;52.472;13.344;2023-12-20T06:14:04;3.45;;;0.95;;
16770;SDS011;8503;52.472;13.344;2023-12-20T06:15:07;3.45;;;0.70;;